Hitchcock, Oklahoma
Current Conditions -  °F | °C
As of 4:35 AM on Wednesday 22 Oct 2014 (Local Time) from KJWG Reporting Station
Clear Clear  
Wind Chill: 59°   Ceiling: Unl
Heat Index: 59°   Visibility: 10mi
Dew Point: 56°   Wind: 3mph
Humidity: 90%   Direction: 140°SE
Pressure: 30.08"   Gusts: NA
Location:  35.97°N, 98.35°W
Report Text: KJWG 220935Z AUTO 14003KT 10SM CLR 15/13 A3008 RMK AO2 T01480132
Loading
Personal Weather Stations






























Interactive Weather Map
Tropical Storm Tracking
New forecast layout! Learn more

10-Day Weather Forecast

Advertisements
Track Severe Weather on mobile